createdAt,value
2018-02-13T00:00:52.868Z,22.73
2018-02-13T00:03:21.328Z,24.77
2018-02-13T00:05:48.943Z,15.05
2018-02-13T00:08:17.521Z,16.80
2018-02-13T00:10:45.910Z,15.68
2018-02-13T00:13:14.297Z,16.95
2018-02-13T00:15:42.673Z,15.52
2018-02-13T00:18:11.207Z,16.83
2018-02-13T00:20:39.628Z,17.17
2018-02-13T00:23:07.211Z,20.42
2018-02-13T00:25:34.795Z,16.15
2018-02-13T00:28:02.419Z,10.82
2018-02-13T00:30:30.036Z,25.15
2018-02-13T00:32:57.681Z,14.95
2018-02-13T00:35:25.326Z,14.93
2018-02-13T00:37:53.828Z,17.25
2018-02-13T00:40:21.449Z,19.15
2018-02-13T00:42:49.066Z,14.90
2018-02-13T00:45:16.683Z,19.67
2018-02-13T00:47:45.082Z,22.08
2018-02-13T00:50:12.737Z,23.30
2018-02-13T00:52:40.362Z,15.52
2018-02-13T00:55:07.947Z,21.92
2018-02-13T00:57:36.276Z,26.00
2018-02-13T01:00:03.863Z,22.52
2018-02-13T01:02:31.447Z,21.15
2018-02-13T01:04:59.039Z,15.00
2018-02-13T01:07:26.632Z,16.10
2018-02-13T01:09:54.743Z,17.50
2018-02-13T01:12:22.331Z,16.85
2018-02-13T01:14:50.901Z,19.98
2018-02-13T01:17:19.196Z,18.80
2018-02-13T01:19:46.822Z,23.25
2018-02-13T01:22:14.407Z,23.48
2018-02-13T01:24:41.982Z,17.87
2018-02-13T01:27:10.273Z,18.87
2018-02-13T01:29:38.565Z,21.87
2018-02-13T01:32:06.982Z,19.50
2018-02-13T01:34:34.576Z,24.55
2018-02-13T01:37:02.166Z,24.77
2018-02-13T01:39:29.767Z,17.77
2018-02-13T01:41:57.353Z,18.27
2018-02-13T01:44:25.726Z,22.43
2018-02-13T01:46:53.311Z,18.50
2018-02-13T01:49:20.894Z,27.73
2018-02-13T01:51:48.478Z,20.65
2018-02-13T01:54:16.159Z,20.73
2018-02-13T01:56:43.743Z,21.50
2018-02-13T01:59:11.339Z,17.00
2018-02-13T02:01:38.932Z,19.42
2018-02-13T02:04:06.519Z,17.52
2018-02-13T02:06:34.105Z,22.62
2018-02-13T02:09:01.738Z,18.90
2018-02-13T02:11:29.382Z,20.62
2018-02-13T02:13:56.960Z,19.00
2018-02-13T02:16:25.482Z,21.85
2018-02-13T02:18:53.860Z,26.35
2018-02-13T02:21:22.182Z,21.52
2018-02-13T02:23:51.181Z,18.27
2018-02-13T02:26:18.775Z,24.42
2018-02-13T02:28:46.423Z,24.73
2018-02-13T02:31:14.851Z,19.33
2018-02-13T02:33:42.468Z,21.12
2018-02-13T02:36:10.099Z,22.62
2018-02-13T02:38:37.691Z,20.30
2018-02-13T02:41:05.289Z,22.73
2018-02-13T02:43:32.882Z,25.37
2018-02-13T02:46:00.476Z,28.70
2018-02-13T02:48:28.079Z,24.27
2018-02-13T02:50:56.285Z,36.75
2018-02-13T02:53:23.965Z,27.20
2018-02-13T02:55:51.565Z,25.73
2018-02-13T02:58:19.217Z,29.25
2018-02-13T03:00:46.824Z,29.63
2018-02-13T03:03:14.447Z,29.45
2018-02-13T03:05:42.078Z,31.55
2018-02-13T03:08:09.671Z,31.50
2018-02-13T03:10:37.304Z,23.77
2018-02-13T03:13:04.942Z,33.05
2018-02-13T03:15:32.541Z,34.72
2018-02-13T03:18:00.127Z,33.55
2018-02-13T03:20:27.815Z,38.05
2018-02-13T03:22:56.251Z,31.20
2018-02-13T03:25:23.848Z,34.03
2018-02-13T03:27:51.511Z,36.10
2018-02-13T03:30:19.144Z,35.50
2018-02-13T03:32:46.735Z,32.53
2018-02-13T03:35:14.404Z,31.12
2018-02-13T03:37:41.996Z,29.48
2018-02-13T03:40:09.636Z,38.60
2018-02-13T03:42:37.234Z,33.58
2018-02-13T03:45:04.876Z,34.97
2018-02-13T03:47:32.562Z,35.72
2018-02-13T03:50:00.160Z,34.38
2018-02-13T03:52:27.790Z,42.38
2018-02-13T03:54:55.385Z,30.05
2018-02-13T03:57:23.020Z,37.30
2018-02-13T03:59:50.671Z,38.83
2018-02-13T04:02:18.334Z,33.40
2018-02-13T04:04:45.967Z,37.28
2018-02-13T04:07:13.597Z,32.05
2018-02-13T04:09:41.178Z,37.43
2018-02-13T04:12:08.782Z,45.70
2018-02-13T04:14:36.414Z,37.92
2018-02-13T04:17:04.019Z,40.20
2018-02-13T04:19:31.619Z,38.80
2018-02-13T04:21:59.332Z,39.35
2018-02-13T04:24:26.936Z,39.78
2018-02-13T04:26:54.575Z,35.78
2018-02-13T04:29:22.174Z,47.75
2018-02-13T04:31:49.771Z,42.60
2018-02-13T04:34:17.367Z,43.72
2018-02-13T04:36:44.963Z,38.75
2018-02-13T04:39:12.556Z,48.70
2018-02-13T04:41:40.188Z,50.03
2018-02-13T04:44:07.823Z,47.22
2018-02-13T04:46:35.414Z,49.72
2018-02-13T04:49:03.052Z,40.00
2018-02-13T04:51:30.638Z,49.70
2018-02-13T04:53:58.275Z,33.03
2018-02-13T04:56:25.896Z,35.88
2018-02-13T04:58:53.527Z,35.33
2018-02-13T05:01:21.147Z,48.87
2018-02-13T05:03:48.782Z,37.65
2018-02-13T05:06:16.380Z,42.72
2018-02-13T05:08:44.006Z,42.55
2018-02-13T05:11:11.598Z,48.63
2018-02-13T05:13:39.227Z,46.72
2018-02-13T05:16:06.850Z,43.72
2018-02-13T05:18:34.512Z,49.33
2018-02-13T05:21:02.915Z,39.38
2018-02-13T05:23:30.508Z,39.58
2018-02-13T05:25:58.101Z,46.47
2018-02-13T05:28:25.763Z,37.38
2018-02-13T05:30:53.360Z,50.90
2018-02-13T05:33:20.963Z,42.25
2018-02-13T05:35:48.571Z,44.97
2018-02-13T05:38:16.165Z,49.95
2018-02-13T05:40:43.761Z,43.15
2018-02-13T05:43:11.354Z,33.85
2018-02-13T05:45:38.993Z,47.13
2018-02-13T05:48:07.360Z,44.53
2018-02-13T05:50:34.954Z,44.95
2018-02-13T05:53:02.541Z,51.40
2018-02-13T05:55:30.131Z,56.88
2018-02-13T05:57:57.719Z,49.78
2018-02-13T06:00:25.312Z,45.42
2018-02-13T06:02:52.903Z,54.83
2018-02-13T06:05:20.588Z,48.85
2018-02-13T06:07:48.217Z,39.65
2018-02-13T06:10:15.812Z,52.30
2018-02-13T06:12:43.395Z,42.38
2018-02-13T06:15:10.984Z,48.10
2018-02-13T06:17:38.574Z,48.58
2018-02-13T06:20:06.202Z,58.60
2018-02-13T06:22:33.879Z,46.08
2018-02-13T06:25:01.468Z,61.33
2018-02-13T06:27:29.063Z,48.38
2018-02-13T06:29:56.678Z,50.92
2018-02-13T06:32:24.315Z,57.80
2018-02-13T06:34:51.903Z,45.58
2018-02-13T06:37:19.498Z,63.42
2018-02-13T06:39:47.139Z,53.30
2018-02-13T06:42:14.955Z,57.33
2018-02-13T06:44:42.540Z,60.08
2018-02-13T06:47:10.130Z,44.97
2018-02-13T06:49:37.719Z,53.05
2018-02-13T06:52:05.310Z,47.25
2018-02-13T06:54:32.904Z,60.75
2018-02-13T06:57:00.500Z,47.97
2018-02-13T06:59:28.130Z,56.90
2018-02-13T07:01:55.785Z,52.42
2018-02-13T07:04:23.377Z,43.35
2018-02-13T07:06:50.962Z,54.38
2018-02-13T07:09:18.553Z,53.03
2018-02-13T07:11:46.143Z,49.90
2018-02-13T07:14:13.728Z,61.17
2018-02-13T07:16:41.321Z,56.45
2018-02-13T07:19:08.913Z,51.33
2018-02-13T07:21:36.503Z,63.28
2018-02-13T07:24:04.099Z,41.30
2018-02-13T07:26:31.683Z,59.15
2018-02-13T07:28:59.419Z,58.70
2018-02-13T07:31:27.623Z,54.63
2018-02-13T07:33:55.217Z,49.42
2018-02-13T07:36:22.847Z,53.45
2018-02-13T07:38:50.472Z,47.25
2018-02-13T07:41:18.059Z,58.17
2018-02-13T07:43:45.646Z,60.28
2018-02-13T07:46:13.235Z,74.65
2018-02-13T07:48:40.922Z,63.75
2018-02-13T07:51:08.506Z,52.53
2018-02-13T07:53:36.096Z,46.05
2018-02-13T07:56:03.707Z,55.55
2018-02-13T07:58:31.303Z,52.78
2018-02-13T08:00:58.932Z,53.63
2018-02-13T08:03:26.631Z,49.50
2018-02-13T08:05:54.227Z,51.22
2018-02-13T08:08:21.854Z,42.95
2018-02-13T08:10:49.448Z,48.30
2018-02-13T08:13:17.035Z,49.38
2018-02-13T08:15:44.634Z,42.25
2018-02-13T08:18:12.229Z,49.03
2018-02-13T08:20:39.819Z,52.15
2018-02-13T08:23:07.522Z,53.08
2018-02-13T08:25:35.116Z,45.58
2018-02-13T08:28:02.707Z,45.72
2018-02-13T08:30:30.303Z,41.50
2018-02-13T08:32:57.894Z,43.97
2018-02-13T08:35:25.479Z,45.45
2018-02-13T08:37:53.071Z,47.15
2018-02-13T08:40:20.959Z,43.08
2018-02-13T08:42:48.551Z,46.03
2018-02-13T08:45:16.140Z,45.78
2018-02-13T08:47:43.846Z,41.90
2018-02-13T08:50:11.430Z,45.10
2018-02-13T08:52:39.084Z,46.08
2018-02-13T08:55:06.671Z,48.40
2018-02-13T08:57:34.304Z,40.58
2018-02-13T09:00:01.900Z,39.83
2018-02-13T09:02:29.504Z,40.60
2018-02-13T09:04:57.099Z,43.72
2018-02-13T09:07:24.678Z,32.27
2018-02-13T09:09:52.263Z,40.60
2018-02-13T09:12:19.845Z,50.33
2018-02-13T09:14:47.426Z,37.53
2018-02-13T09:17:15.011Z,39.80
2018-02-13T09:19:42.591Z,43.70
2018-02-13T09:22:10.173Z,46.93
2018-02-13T09:24:37.791Z,40.40
2018-02-13T09:27:05.400Z,34.00
2018-02-13T09:29:32.978Z,38.17
2018-02-13T09:32:00.561Z,44.43
2018-02-13T09:34:28.214Z,35.83
2018-02-13T09:36:55.806Z,38.47
2018-02-13T09:39:23.378Z,34.73
2018-02-13T09:41:51.832Z,33.37
2018-02-13T09:44:19.406Z,42.03
2018-02-13T09:46:47.038Z,36.50
2018-02-13T09:49:14.803Z,30.07
2018-02-13T09:51:42.383Z,35.20
2018-02-13T09:54:09.959Z,46.27
2018-02-13T09:56:37.539Z,36.70
2018-02-13T09:59:05.166Z,39.40
2018-02-13T10:01:33.533Z,42.03
2018-02-13T10:04:01.209Z,33.67
2018-02-13T10:06:28.815Z,34.97
2018-02-13T10:08:56.434Z,36.20
2018-02-13T10:11:24.161Z,38.70
2018-02-13T10:13:51.738Z,35.70
2018-02-13T10:16:19.370Z,36.93
2018-02-13T10:18:46.955Z,30.80
2018-02-13T10:21:14.644Z,33.23
2018-02-13T10:23:42.291Z,38.83
2018-02-13T10:26:09.873Z,33.90
2018-02-13T10:28:37.633Z,37.63
2018-02-13T10:31:05.215Z,29.17
2018-02-13T10:33:32.794Z,30.70
2018-02-13T10:36:01.318Z,30.63
2018-02-13T10:38:28.904Z,35.53
2018-02-13T10:40:56.680Z,26.40
2018-02-13T10:43:24.275Z,20.57
2018-02-13T10:45:52.299Z,39.97
2018-02-13T10:48:19.878Z,26.63
2018-02-13T10:50:47.459Z,29.10
2018-02-13T10:53:15.075Z,31.77
2018-02-13T10:55:42.664Z,31.03
2018-02-13T10:58:10.244Z,28.10
2018-02-13T11:00:43.486Z,29.10
2018-02-13T11:03:11.161Z,25.33
2018-02-13T11:05:38.735Z,22.50
2018-02-13T11:08:06.310Z,27.40
2018-02-13T11:10:33.939Z,21.90
2018-02-13T11:13:01.523Z,32.93
2018-02-13T11:15:29.112Z,24.53
2018-02-13T11:17:56.703Z,28.00
2018-02-13T11:20:24.278Z,29.70
2018-02-13T11:22:51.862Z,24.37
2018-02-13T11:25:20.218Z,21.17
2018-02-13T11:27:47.802Z,21.43
2018-02-13T11:30:15.411Z,16.20
2018-02-13T11:32:42.995Z,12.93
2018-02-13T11:35:10.677Z,19.50
2018-02-13T11:37:38.255Z,19.20
2018-02-13T11:40:05.875Z,16.53
2018-02-13T11:42:33.564Z,27.23
2018-02-13T11:45:01.150Z,12.60
2018-02-13T11:47:28.723Z,15.70
2018-02-13T11:49:56.302Z,20.90
2018-02-13T11:52:23.876Z,15.17
2018-02-13T11:54:51.454Z,13.50
2018-02-13T11:57:19.971Z,13.30
2018-02-13T11:59:47.550Z,14.03
2018-02-13T12:02:15.174Z,11.67
2018-02-13T12:04:42.752Z,11.00
2018-02-13T12:07:10.326Z,10.10
2018-02-13T12:09:37.942Z,18.30
2018-02-13T12:12:05.519Z,13.93
2018-02-13T12:14:33.103Z,11.93
2018-02-13T12:17:00.676Z,12.00
2018-02-13T12:19:28.254Z,13.43
2018-02-13T12:21:55.837Z,12.13
2018-02-13T12:24:24.014Z,12.20
2018-02-13T12:26:51.590Z,17.50
2018-02-13T12:29:19.174Z,11.87
2018-02-13T12:31:46.747Z,11.70
2018-02-13T12:34:14.384Z,12.63
2018-02-13T12:36:41.994Z,10.30
2018-02-13T12:39:09.614Z,9.83
2018-02-13T12:41:37.183Z,8.77
2018-02-13T12:44:04.755Z,11.70
2018-02-13T12:46:32.330Z,12.07
2018-02-13T12:48:59.945Z,11.40
2018-02-13T12:51:27.557Z,14.07
2018-02-13T12:53:55.127Z,9.23
2018-02-13T12:56:22.697Z,10.33
2018-02-13T12:58:50.279Z,13.33
2018-02-13T13:01:17.955Z,11.87
2018-02-13T13:03:45.528Z,14.63
2018-02-13T13:06:13.102Z,18.30
2018-02-13T13:08:40.791Z,12.40
2018-02-13T13:11:08.358Z,15.33
2018-02-13T13:13:35.932Z,15.43
2018-02-13T13:16:03.506Z,14.43
2018-02-13T13:18:31.118Z,13.33
2018-02-13T13:20:58.713Z,14.67
2018-02-13T13:23:26.344Z,12.70
2018-02-13T13:25:54.795Z,17.97
2018-02-13T13:28:22.464Z,14.10
2018-02-13T13:30:50.082Z,13.97
2018-02-13T13:33:17.662Z,18.87
2018-02-13T13:35:45.278Z,19.70
2018-02-13T13:38:12.859Z,17.73
2018-02-13T13:40:40.562Z,14.03
2018-02-13T13:43:08.231Z,15.40
2018-02-13T13:45:35.858Z,16.27
2018-02-13T13:48:03.443Z,14.20
2018-02-13T13:50:31.029Z,20.30
2018-02-13T13:52:58.649Z,13.50
2018-02-13T13:55:26.232Z,13.37
2018-02-13T13:57:53.874Z,13.87
2018-02-13T14:00:21.454Z,17.20
2018-02-13T14:02:49.103Z,14.47
2018-02-13T14:05:16.684Z,18.37
2018-02-13T14:07:44.291Z,23.20
2018-02-13T14:10:11.883Z,20.37
2018-02-13T14:12:39.475Z,16.30
2018-02-13T14:15:07.050Z,16.43
2018-02-13T14:17:34.630Z,21.90
2018-02-13T14:20:02.211Z,13.67
2018-02-13T14:22:29.891Z,16.93
2018-02-13T14:24:57.503Z,19.10
2018-02-13T14:27:25.076Z,15.10
2018-02-13T14:29:52.654Z,21.03
2018-02-13T14:32:20.230Z,26.30
2018-02-13T14:34:47.803Z,17.00
2018-02-13T14:37:15.422Z,22.03
2018-02-13T14:39:43.000Z,20.50
2018-02-13T14:42:10.582Z,15.13
2018-02-13T14:44:38.197Z,22.60
2018-02-13T14:47:05.775Z,14.00
2018-02-13T14:49:33.407Z,18.70
2018-02-13T14:52:01.052Z,20.00
2018-02-13T14:54:28.641Z,15.00
2018-02-13T14:56:56.244Z,12.70
2018-02-13T14:59:23.821Z,18.90
2018-02-13T15:01:51.418Z,20.67
2018-02-13T15:04:18.995Z,14.10
2018-02-13T15:06:46.612Z,13.73
2018-02-13T15:09:14.806Z,13.43
2018-02-13T15:11:42.436Z,15.50
2018-02-13T15:14:10.014Z,15.63
2018-02-13T15:16:37.612Z,11.97
2018-02-13T15:19:05.217Z,22.43
2018-02-13T15:21:32.854Z,13.77
2018-02-13T15:24:00.432Z,11.40
2018-02-13T15:26:28.050Z,11.17
2018-02-13T15:28:55.626Z,12.90
2018-02-13T15:31:23.455Z,10.93
2018-02-13T15:33:51.053Z,21.43
2018-02-13T15:36:18.647Z,15.33
2018-02-13T15:38:46.219Z,14.30
2018-02-13T15:41:13.790Z,8.27
2018-02-13T15:43:42.631Z,10.83
2018-02-13T15:46:10.211Z,13.03
2018-02-13T15:48:37.855Z,12.17
2018-02-13T15:51:05.439Z,13.97
2018-02-13T15:53:33.064Z,13.37
2018-02-13T15:56:00.718Z,13.83
2018-02-13T15:58:28.356Z,16.60
2018-02-13T16:00:55.967Z,12.93
2018-02-13T16:03:23.543Z,13.73
2018-02-13T16:05:51.126Z,13.90
2018-02-13T16:08:18.726Z,18.93
2018-02-13T16:10:46.299Z,14.33
2018-02-13T16:13:13.874Z,9.13
2018-02-13T16:15:41.491Z,13.77
2018-02-13T16:18:09.058Z,14.73
2018-02-13T16:20:36.654Z,14.73
2018-02-13T16:23:04.454Z,19.63
2018-02-13T16:25:32.032Z,22.40
2018-02-13T16:27:59.607Z,14.80
2018-02-13T16:30:27.189Z,11.00
2018-02-13T16:32:54.767Z,18.70
2018-02-13T16:35:22.343Z,15.20
2018-02-13T16:37:49.924Z,13.23
2018-02-13T16:40:17.649Z,20.97
2018-02-13T16:42:45.247Z,17.70
2018-02-13T16:45:12.824Z,19.07
2018-02-13T16:47:40.485Z,16.40
2018-02-13T16:50:08.104Z,15.67
2018-02-13T16:52:35.678Z,15.23
2018-02-13T16:55:03.296Z,18.50
2018-02-13T16:57:30.916Z,24.47
2018-02-13T16:59:58.494Z,16.87
2018-02-13T17:02:26.114Z,20.63
2018-02-13T17:04:53.701Z,15.80
2018-02-13T17:07:21.330Z,14.85
2018-02-13T17:09:49.835Z,22.27
2018-02-13T17:12:17.427Z,21.23
2018-02-13T17:14:45.020Z,13.52
2018-02-13T17:17:12.607Z,12.10
2018-02-13T17:19:40.205Z,17.85
2018-02-13T17:22:07.812Z,14.82
2018-02-13T17:24:35.407Z,16.62
2018-02-13T17:27:03.033Z,18.40
2018-02-13T17:29:30.627Z,14.23
2018-02-13T17:31:58.227Z,16.92
2018-02-13T17:34:25.854Z,16.75
2018-02-13T17:36:53.437Z,29.00
2018-02-13T17:39:21.028Z,20.65
2018-02-13T17:41:48.623Z,17.48
2018-02-13T17:44:16.288Z,15.02
2018-02-13T17:46:43.885Z,17.00
2018-02-13T17:49:11.558Z,28.62
2018-02-13T17:51:39.174Z,16.95
2018-02-13T17:54:06.823Z,21.73
2018-02-13T17:56:34.519Z,24.23
2018-02-13T17:59:02.112Z,32.75
2018-02-13T18:01:29.712Z,25.75
2018-02-13T18:03:57.308Z,24.45
2018-02-13T18:06:24.941Z,23.10
2018-02-13T18:08:52.530Z,37.40
2018-02-13T18:11:20.136Z,29.33
2018-02-13T18:13:47.741Z,35.72
2018-02-13T18:16:15.330Z,30.17
2018-02-13T18:18:42.921Z,27.67
2018-02-13T18:21:10.526Z,30.05
2018-02-13T18:23:38.220Z,25.23
2018-02-13T18:26:05.836Z,19.92
2018-02-13T18:28:33.497Z,18.12
2018-02-13T18:31:01.138Z,18.87
2018-02-13T18:33:29.905Z,26.33
2018-02-13T18:35:57.491Z,20.45
2018-02-13T18:38:25.118Z,23.50
2018-02-13T18:40:52.769Z,27.77
2018-02-13T18:43:20.367Z,18.75
2018-02-13T18:45:47.959Z,18.08
2018-02-13T18:48:15.551Z,24.05
2018-02-13T18:50:43.144Z,22.05
2018-02-13T18:55:38.279Z,20.20
2018-02-13T18:58:06.039Z,41.72
2018-02-13T19:00:33.681Z,21.10
2018-02-13T19:03:01.274Z,22.70
2018-02-13T19:05:28.864Z,22.83
2018-02-13T19:07:56.459Z,25.12
2018-02-13T19:10:24.048Z,23.52
2018-02-13T19:12:51.686Z,22.92
2018-02-13T19:15:19.335Z,19.87
2018-02-13T19:17:46.922Z,26.10
2018-02-13T19:20:14.515Z,26.73
2018-02-13T19:22:42.116Z,22.45
2018-02-13T19:25:09.708Z,23.45
2018-02-13T19:27:37.356Z,32.25
2018-02-13T19:30:04.954Z,25.60
2018-02-13T19:32:32.687Z,24.08
2018-02-13T19:35:00.343Z,28.90
2018-02-13T19:37:27.963Z,26.23
2018-02-13T19:39:56.030Z,22.05
2018-02-13T19:42:23.675Z,22.05
2018-02-13T19:44:51.268Z,22.70
2018-02-13T19:47:18.894Z,22.42
2018-02-13T19:49:46.511Z,20.00
2018-02-13T19:52:14.313Z,25.20
2018-02-13T19:54:41.947Z,35.40
2018-02-13T19:57:09.535Z,28.35
2018-02-13T19:59:37.199Z,37.42
2018-02-13T20:02:04.792Z,36.50
2018-02-13T20:04:32.388Z,36.53
2018-02-13T20:07:00.167Z,26.70
2018-02-13T20:09:27.799Z,31.08
2018-02-13T20:11:56.043Z,26.25
2018-02-13T20:14:23.754Z,26.67
2018-02-13T20:16:51.652Z,30.02
2018-02-13T20:19:19.302Z,27.85
2018-02-13T20:21:46.931Z,29.02
2018-02-13T20:24:15.383Z,25.27
2018-02-13T20:26:43.620Z,22.60
2018-02-13T20:29:11.210Z,22.37
2018-02-13T20:31:38.843Z,23.45
2018-02-13T20:34:06.437Z,25.85
2018-02-13T20:36:34.027Z,31.17
2018-02-13T20:39:01.611Z,17.77
2018-02-13T20:41:29.208Z,29.50
2018-02-13T20:43:57.795Z,24.87
2018-02-13T20:46:25.391Z,25.88
2018-02-13T20:48:53.020Z,27.95
2018-02-13T20:51:20.648Z,31.23
2018-02-13T20:53:48.234Z,28.17
2018-02-13T20:56:15.934Z,30.52
2018-02-13T20:58:43.518Z,26.80
2018-02-13T21:01:11.209Z,29.37
2018-02-13T21:03:39.057Z,26.65
2018-02-13T21:06:06.666Z,29.30
2018-02-13T21:08:34.259Z,25.37
2018-02-13T21:11:01.880Z,20.50
2018-02-13T21:13:29.476Z,25.35
2018-02-13T21:15:57.147Z,22.75
2018-02-13T21:18:24.775Z,23.50
2018-02-13T21:20:52.633Z,27.02
2018-02-13T21:23:20.355Z,24.60
2018-02-13T21:25:47.943Z,27.35
2018-02-13T21:28:15.629Z,23.70
2018-02-13T21:30:43.251Z,23.30
2018-02-13T21:33:11.577Z,23.17
2018-02-13T21:35:39.162Z,24.35
2018-02-13T21:38:06.795Z,24.65
2018-02-13T21:40:34.435Z,22.62
2018-02-13T21:43:02.068Z,34.78
2018-02-13T21:45:29.655Z,25.15
2018-02-13T21:47:57.272Z,28.52
2018-02-13T21:50:24.887Z,31.70
2018-02-13T21:52:52.474Z,35.28
2018-02-13T21:55:20.107Z,36.85
2018-02-13T21:57:47.694Z,39.92
2018-02-13T22:00:15.282Z,38.58
2018-02-13T22:02:43.803Z,28.12
2018-02-13T22:05:11.397Z,33.30
2018-02-13T22:07:38.991Z,28.77
2018-02-13T22:10:06.583Z,32.78
2018-02-13T22:12:34.167Z,26.67
2018-02-13T22:15:01.868Z,27.80
2018-02-13T22:17:29.458Z,30.05
2018-02-13T22:19:57.055Z,28.45
2018-02-13T22:22:24.642Z,27.65
2018-02-13T22:24:52.236Z,31.67
2018-02-13T22:27:19.921Z,30.83
2018-02-13T22:29:47.498Z,30.52
2018-02-13T22:32:15.091Z,25.05
2018-02-13T22:34:42.682Z,29.87
2018-02-13T22:37:10.270Z,24.90
2018-02-13T22:39:37.860Z,37.05
2018-02-13T22:42:05.478Z,28.15
2018-02-13T22:44:33.142Z,30.50
2018-02-13T22:47:00.727Z,33.72
2018-02-13T22:49:28.315Z,27.35
2018-02-13T22:51:55.910Z,28.90
2018-02-13T22:54:23.499Z,33.25
2018-02-13T22:56:51.083Z,31.52
2018-02-13T22:59:18.724Z,36.92
2018-02-13T23:01:46.315Z,30.48
2018-02-13T23:04:13.907Z,29.17
2018-02-13T23:06:41.491Z,31.50
2018-02-13T23:09:09.083Z,38.83
2018-02-13T23:11:36.672Z,37.35
2018-02-13T23:14:04.266Z,25.30
2018-02-13T23:16:31.851Z,22.25
2018-02-13T23:18:59.448Z,28.70
2018-02-13T23:21:27.039Z,30.05
2018-02-13T23:23:54.631Z,34.78
2018-02-13T23:26:22.324Z,32.97
2018-02-13T23:28:49.915Z,29.25
2018-02-13T23:31:17.507Z,41.22
2018-02-13T23:33:45.135Z,40.08
2018-02-13T23:36:12.772Z,24.63
2018-02-13T23:38:40.462Z,27.62
2018-02-13T23:41:08.056Z,39.88
2018-02-13T23:43:35.642Z,31.35
2018-02-13T23:46:03.270Z,38.25
2018-02-13T23:48:30.859Z,30.02
2018-02-13T23:50:58.443Z,32.05
2018-02-13T23:53:26.032Z,29.60
2018-02-13T23:55:53.639Z,35.38
2018-02-13T23:58:21.227Z,32.95
